createdAt,value
2022-08-17T05:05:54.951Z,96589.16
2022-08-17T05:08:41.817Z,96593.16
2022-08-17T05:11:29.454Z,96600.19
2022-08-17T05:18:19.093Z,96601.56
2022-08-17T05:21:06.796Z,96593.72
2022-08-17T05:23:56.283Z,96599.38
2022-08-17T05:26:43.712Z,96603.69
2022-08-17T05:29:35.087Z,96603.16
2022-08-17T05:32:37.773Z,96601.78
2022-08-17T05:35:30.342Z,96601.78
2022-08-17T05:38:19.041Z,96592.31
2022-08-17T05:41:07.546Z,96593.13
2022-08-17T05:43:56.533Z,96602.56
2022-08-17T05:46:48.346Z,96607.16
2022-08-17T05:49:35.781Z,96603.09
2022-08-17T05:52:48.058Z,96605.47
2022-08-17T05:55:47.792Z,96603.88
2022-08-17T05:59:12.523Z,96607.06
2022-08-17T06:02:08.282Z,96610.00
2022-08-17T06:05:05.181Z,96600.06
2022-08-17T06:08:37.183Z,96597.59
2022-08-17T06:12:01.685Z,96592.78
2022-08-17T06:15:19.478Z,96595.78
2022-08-17T06:18:09.261Z,96594.69
2022-08-17T06:21:02.743Z,96593.38
2022-08-17T06:23:53.145Z,96592.81
2022-08-17T06:26:45.401Z,96596.09
2022-08-17T06:29:41.765Z,96598.28
2022-08-17T06:32:28.663Z,96595.59
2022-08-17T06:35:21.934Z,96590.25
2022-08-17T06:38:38.110Z,96595.66
2022-08-17T06:42:02.693Z,96595.16
2022-08-17T06:45:23.880Z,96604.38
2022-08-17T06:48:25.779Z,96592.81
2022-08-17T06:51:28.401Z,96605.25
2022-08-17T06:54:27.108Z,96609.59
2022-08-17T06:57:19.918Z,96609.41
2022-08-17T07:00:13.501Z,96607.81
2022-08-17T07:03:20.815Z,96607.06
2022-08-17T07:06:24.106Z,96613.84
2022-08-17T07:09:17.337Z,96619.28
2022-08-17T07:12:15.890Z,96615.50
2022-08-17T07:15:13.874Z,96628.53
2022-08-17T07:18:00.972Z,96634.50
2022-08-17T07:20:50.748Z,96632.66
2022-08-17T07:23:53.122Z,96625.91
2022-08-17T07:26:39.882Z,96620.22
2022-08-17T07:29:27.046Z,96625.94
2022-08-17T07:32:18.393Z,96620.28
2022-08-17T07:35:37.900Z,96631.13
2022-08-17T07:38:31.045Z,96633.28
2022-08-17T07:41:20.076Z,96632.47
2022-08-17T07:44:15.202Z,96627.06
2022-08-17T07:47:34.014Z,96634.38
2022-08-17T07:50:26.036Z,96630.56
2022-08-17T07:53:25.781Z,96634.94
2022-08-17T07:56:34.553Z,96628.13
2022-08-17T07:59:29.420Z,96634.06
2022-08-17T08:02:30.123Z,96634.31
2022-08-17T08:05:48.647Z,96638.06
2022-08-17T08:08:38.003Z,96638.03
2022-08-17T08:11:32.523Z,96645.03
2022-08-17T08:14:33.565Z,96647.69
2022-08-17T08:17:26.256Z,96657.94
2022-08-17T08:20:44.645Z,96654.91
2022-08-17T08:23:50.681Z,96644.53
2022-08-17T08:26:41.423Z,96646.34
2022-08-17T08:29:32.529Z,96644.69
2022-08-17T08:32:28.497Z,96641.91
2022-08-17T08:35:30.929Z,96647.22
2022-08-17T08:38:39.404Z,96645.47
2022-08-17T08:41:35.162Z,96636.13
2022-08-17T08:45:03.534Z,96630.84
2022-08-17T08:47:54.011Z,96640.78
2022-08-17T08:50:56.537Z,96643.09
2022-08-17T08:54:14.668Z,96649.47
2022-08-17T08:57:25.440Z,96653.13
2022-08-17T09:00:25.574Z,96652.34
2022-08-17T09:03:43.801Z,96654.38
2022-08-17T09:07:11.548Z,96648.53
2022-08-17T09:10:14.081Z,96651.13
2022-08-17T09:13:24.163Z,96642.78
2022-08-17T09:16:20.168Z,96634.78
2022-08-17T09:19:17.381Z,96630.50
2022-08-17T09:22:14.128Z,96636.56
2022-08-17T09:25:15.921Z,96634.16
2022-08-17T09:28:08.401Z,96628.56
2022-08-17T09:31:05.876Z,96632.94
2022-08-17T09:33:55.406Z,96621.53
2022-08-17T09:37:35.778Z,96610.69
2022-08-17T09:40:29.127Z,96615.53
2022-08-17T09:43:34.268Z,96625.63
2022-08-17T09:46:29.110Z,96620.19
2022-08-17T09:49:29.455Z,96605.81
2022-08-17T09:52:24.980Z,96606.75
2022-08-17T09:55:11.984Z,96601.69
2022-08-17T09:58:20.072Z,96606.09
2022-08-17T10:01:36.684Z,96597.69
2022-08-17T10:04:50.302Z,96598.88
2022-08-17T10:07:44.284Z,96597.69
2022-08-17T10:10:42.613Z,96594.34
2022-08-17T10:14:02.020Z,96592.22
2022-08-17T10:17:33.137Z,96594.56
2022-08-17T10:20:27.694Z,96592.75
2022-08-17T10:23:51.403Z,96594.91
2022-08-17T10:26:56.112Z,96587.53
2022-08-17T10:30:00.491Z,96580.47
2022-08-17T10:33:00.309Z,96586.81
2022-08-17T10:35:47.019Z,96573.00
2022-08-17T10:38:46.168Z,96577.06
2022-08-17T10:41:42.630Z,96584.84
2022-08-17T10:45:06.277Z,96602.44
2022-08-17T10:48:05.297Z,96593.91
2022-08-17T10:50:55.818Z,96586.50
2022-08-17T10:53:43.347Z,96590.38
2022-08-17T10:56:51.131Z,96588.47
2022-08-17T10:59:37.814Z,96578.63
2022-08-17T11:02:51.510Z,96572.50
2022-08-17T11:06:13.077Z,96578.44
2022-08-17T11:09:26.193Z,96571.66
2022-08-17T11:12:20.063Z,96579.72
2022-08-17T11:15:31.292Z,96565.50
2022-08-17T11:18:29.786Z,96569.69
2022-08-17T11:21:24.442Z,96572.75
2022-08-17T11:24:33.343Z,96565.13
2022-08-17T11:27:30.096Z,96568.94
2022-08-17T11:30:44.501Z,96556.31
2022-08-17T11:33:32.013Z,96569.84
2022-08-17T11:36:37.633Z,96559.19
2022-08-17T11:39:31.056Z,96562.84
2022-08-17T11:42:53.154Z,96552.88
2022-08-17T11:45:55.235Z,96563.69
2022-08-17T11:49:18.627Z,96558.09
2022-08-17T11:52:08.445Z,96556.78
2022-08-17T11:55:03.635Z,96551.06
2022-08-17T11:58:26.374Z,96563.44
2022-08-17T12:01:33.151Z,96566.41
2022-08-17T12:04:30.730Z,96579.25
2022-08-17T12:07:23.104Z,96585.94
2022-08-17T12:10:12.300Z,96589.91
2022-08-17T12:13:11.074Z,96584.22
2022-08-17T12:15:58.150Z,96585.16
2022-08-17T12:18:54.567Z,96577.16
2022-08-17T12:21:54.161Z,96564.31
2022-08-17T12:24:50.459Z,96554.00
2022-08-17T12:28:04.883Z,96558.97
2022-08-17T12:30:54.117Z,96555.19
2022-08-17T12:33:45.446Z,96550.63
2022-08-17T12:36:32.680Z,96542.97
2022-08-17T12:39:24.944Z,96539.06
2022-08-17T12:42:25.582Z,96543.19
2022-08-17T12:45:41.847Z,96548.13
2022-08-17T12:48:31.857Z,96547.91
2022-08-17T12:51:18.653Z,96546.88
2022-08-17T12:54:05.557Z,96546.19
2022-08-17T12:56:52.437Z,96540.66
2022-08-17T12:59:46.556Z,96538.03
2022-08-17T13:02:43.662Z,96542.53
2022-08-17T13:05:35.916Z,96546.88
2022-08-17T13:08:36.051Z,96550.91
2022-08-17T13:11:26.043Z,96547.31
2022-08-17T13:14:12.955Z,96543.44
2022-08-17T13:17:01.193Z,96534.50
2022-08-17T13:19:49.602Z,96531.38
2022-08-17T13:22:36.481Z,96536.53
2022-08-17T13:25:23.627Z,96526.78
2022-08-17T13:28:18.231Z,96529.66
2022-08-17T13:31:24.147Z,96519.56
2022-08-17T13:34:26.867Z,96511.09
2022-08-17T13:37:27.114Z,96517.94
2022-08-17T13:40:14.894Z,96525.63
2022-08-17T13:43:04.079Z,96523.78
2022-08-17T13:45:52.223Z,96529.06
2022-08-17T13:48:39.125Z,96520.09
2022-08-17T13:51:31.633Z,96514.59
2022-08-17T13:54:34.199Z,96514.34
2022-08-17T13:57:23.806Z,96507.44
2022-08-17T14:00:36.705Z,96505.22
2022-08-17T14:03:24.694Z,96499.00
2022-08-17T14:06:11.512Z,96498.09
2022-08-17T14:09:09.096Z,96492.97
2022-08-17T14:11:56.959Z,96494.50
2022-08-17T14:14:44.035Z,96496.75
2022-08-17T14:17:35.048Z,96491.09
2022-08-17T14:20:25.025Z,96492.63
2022-08-17T14:23:11.893Z,96483.38
2022-08-17T14:25:58.728Z,96487.19
2022-08-17T14:28:54.511Z,96484.59
2022-08-17T14:31:48.625Z,96482.38
2022-08-17T14:34:41.007Z,96479.00
2022-08-17T14:37:28.915Z,96480.72
2022-08-17T14:40:16.690Z,96482.84
2022-08-17T14:43:03.893Z,96490.03
2022-08-17T14:45:51.728Z,96485.41
2022-08-17T14:48:40.533Z,96480.38
2022-08-17T14:51:29.820Z,96483.22
2022-08-17T14:54:33.147Z,96481.72
2022-08-17T14:57:33.424Z,96483.38
2022-08-17T15:00:21.280Z,96465.69
2022-08-17T15:03:08.096Z,96461.81
2022-08-17T15:05:55.238Z,96453.16
2022-08-17T15:08:42.799Z,96463.88
2022-08-17T15:11:30.879Z,96452.00
2022-08-17T15:14:17.669Z,96447.28
2022-08-17T15:17:04.468Z,96439.34
2022-08-17T15:19:51.663Z,96441.31
2022-08-17T15:22:40.806Z,96437.59
2022-08-17T15:25:29.621Z,96440.19
2022-08-17T15:28:17.101Z,96439.78
2022-08-17T15:31:05.686Z,96433.88
2022-08-17T15:33:52.993Z,96427.63
2022-08-17T15:36:40.669Z,96419.63
2022-08-17T15:39:36.086Z,96421.97
2022-08-17T15:42:23.602Z,96430.97
2022-08-17T15:45:13.416Z,96434.81
2022-08-17T15:48:00.272Z,96437.84
2022-08-17T15:50:47.040Z,96427.09
2022-08-17T15:53:34.164Z,96436.78
2022-08-17T15:56:21.295Z,96448.53
2022-08-17T15:59:08.196Z,96447.63
2022-08-17T16:03:13.894Z,96439.66
2022-08-17T16:05:10.215Z,96446.59
2022-08-17T16:07:57.188Z,96460.31
2022-08-17T16:10:44.072Z,96463.78
2022-08-17T16:13:31.614Z,96462.09
2022-08-17T16:16:18.376Z,96454.88
2022-08-17T16:19:05.141Z,96463.88
2022-08-17T16:21:51.941Z,96453.53
2022-08-17T16:24:47.364Z,96449.09
2022-08-17T16:27:44.871Z,96464.50
2022-08-17T16:30:35.316Z,96461.31
2022-08-17T16:33:22.319Z,96462.81
2022-08-17T16:36:09.370Z,96463.50
2022-08-17T16:38:57.005Z,96462.22
2022-08-17T16:41:46.647Z,96465.25
2022-08-17T16:44:33.468Z,96461.16
2022-08-17T16:47:20.575Z,96464.97
2022-08-17T16:50:09.758Z,96459.28
2022-08-17T16:53:06.399Z,96459.97
2022-08-17T16:55:53.201Z,96459.44
2022-08-17T16:58:40.932Z,96453.38
2022-08-17T17:01:29.774Z,96451.69
2022-08-17T17:04:17.333Z,96453.06
2022-08-17T17:07:15.105Z,96448.25
2022-08-17T17:10:05.938Z,96453.22
2022-08-17T17:13:02.898Z,96451.50
2022-08-17T17:16:01.492Z,96450.78
2022-08-17T17:18:56.433Z,96457.56
2022-08-17T17:22:12.963Z,96453.31
2022-08-17T17:25:21.096Z,96455.16
2022-08-17T17:28:26.726Z,96444.16
2022-08-17T17:31:23.685Z,96451.59
2022-08-17T17:34:13.676Z,96444.84
2022-08-17T17:37:06.497Z,96439.66
2022-08-17T17:39:56.653Z,96438.88
2022-08-17T17:42:44.396Z,96427.84
2022-08-17T17:45:38.441Z,96431.75
2022-08-17T17:48:26.783Z,96428.22
2022-08-17T17:52:03.650Z,96426.63
2022-08-17T17:54:52.167Z,96426.50
2022-08-17T17:58:10.160Z,96428.81
2022-08-17T18:01:22.066Z,96437.78
2022-08-17T18:04:21.311Z,96435.72
2022-08-17T18:07:42.599Z,96435.59
2022-08-17T18:10:39.123Z,96437.03
2022-08-17T18:13:45.043Z,96433.34
2022-08-17T18:16:34.963Z,96429.69
2022-08-17T18:19:25.371Z,96432.00
2022-08-17T18:22:15.269Z,96420.09
2022-08-17T18:25:04.841Z,96423.03
2022-08-17T18:27:51.931Z,96419.84
2022-08-17T18:30:38.847Z,96423.63
2022-08-17T18:33:26.799Z,96428.22
2022-08-17T18:36:27.731Z,96426.53
2022-08-17T18:39:17.344Z,96425.63
2022-08-17T18:42:06.861Z,96421.16
2022-08-17T18:44:59.951Z,96423.81
2022-08-17T18:47:55.256Z,96416.94
2022-08-17T18:50:45.279Z,96427.03
2022-08-17T18:53:34.113Z,96437.94
2022-08-17T18:56:33.292Z,96423.25
2022-08-17T18:59:42.121Z,96417.19
2022-08-17T19:02:45.836Z,96427.59
2022-08-17T19:05:39.735Z,96428.97
2022-08-17T19:08:32.382Z,96430.00
2022-08-17T19:11:30.292Z,96416.34
2022-08-17T19:14:18.554Z,96417.03
2022-08-17T19:17:19.213Z,96417.63
2022-08-17T19:20:24.429Z,96417.03
2022-08-17T19:23:16.738Z,96420.34
2022-08-17T19:26:05.858Z,96413.47
2022-08-17T19:29:18.904Z,96415.13
2022-08-17T19:32:08.925Z,96414.56
2022-08-17T19:35:03.545Z,96411.56
2022-08-17T19:38:31.589Z,96406.63
2022-08-17T19:41:32.982Z,96415.44
2022-08-17T19:44:35.070Z,96410.16
2022-08-17T19:47:53.847Z,96423.31
2022-08-17T19:50:51.341Z,96418.03
2022-08-17T19:54:04.941Z,96407.94
2022-08-17T19:57:02.814Z,96407.31
2022-08-17T20:00:05.449Z,96398.50
2022-08-17T21:24:15.140Z,96456.09
2022-08-17T21:28:30.009Z,96436.94
2022-08-17T21:40:09.068Z,96427.63
2022-08-17T22:01:06.373Z,96409.44
2022-08-17T22:16:48.267Z,96410.91
2022-08-17T22:36:14.603Z,96426.81
2022-08-17T22:56:16.580Z,96412.94
2022-08-17T23:05:48.063Z,96419.34
2022-08-17T23:08:08.172Z,96406.47
2022-08-17T23:19:22.365Z,96405.13
2022-08-17T23:23:03.807Z,96423.94
2022-08-17T23:26:56.295Z,96437.44
2022-08-17T23:34:19.013Z,96426.44
2022-08-17T23:37:48.929Z,96442.53
2022-08-17T23:41:57.930Z,96443.97
2022-08-17T23:45:25.558Z,96435.25
2022-08-17T23:49:19.757Z,96441.31
